Aegean Orion — SVA2487 — position and weather

sailwx.info

Track history (hours):
 
Tides and Currents Weather Stations Pressure Air Temp Water Temp Dewpoint Dewpoint Depression Visibility Wind Speed Wind Dir Waves Ship Positions

Aegean Orion

Last reported at 2015-Apr-18 04:16 UTC. Time now 2015-Apr-19 09:23 UTC.
Position N 38°02' E 023°32'.

; draft 2.4 m.

Type: Ship. MMSI: 239550200.

Date/timePositionNaut miles runAvg speedWind from/ knotsBaromVisibWave heightAir tempDewpointWater temp
2015-Apr-18 04:16N 38°02' E 023°32'5 6.8
2015-Apr-18 03:33N 37°57' E 023°35'0 0.1
2015-Apr-18 02:33N 37°57' E 023°35'0 0.0
2015-Apr-18 01:34N 37°57' E 023°35'0 0.0
2015-Apr-18 00:33N 37°57' E 023°35'0 0.0
2015-Apr-17 23:33N 37°57' E 023°35'3 3.1
2015-Apr-17 22:33N 37°57' E 023°38'0 0.0
2015-Apr-17 21:33N 37°57' E 023°38'0 0.1
2015-Apr-17 20:33N 37°57' E 023°38'3 3.1
2015-Apr-17 19:33N 37°57' E 023°35'0 0.0
2015-Apr-17 18:33N 37°57' E 023°34'0 0.0
2015-Apr-17 17:33N 37°57' E 023°34'0 0.0
2015-Apr-17 16:33N 37°57' E 023°34'0 0.0
2015-Apr-17 15:33N 37°57' E 023°34'0 0.0
2015-Apr-17 14:33N 37°57' E 023°34'0 0.0
2015-Apr-17 13:33N 37°57' E 023°34'0 0.0
2015-Apr-17 12:33N 37°57' E 023°34'0 0.0
2015-Apr-17 11:33N 37°57' E 023°34'0 0.0
2015-Apr-17 10:33N 37°57' E 023°34'0 0.0
2015-Apr-17 09:33N 37°57' E 023°34'2 1.9
2015-Apr-17 08:33N 37°58' E 023°33'4 0.3
2015-Apr-16 21:16N 38°02' E 023°32'7 1.0
2015-Apr-16 13:33N 37°56' E 023°38'0 0.3
2015-Apr-16 12:13N 37°57' E 023°38'3 4.5
2015-Apr-16 11:33N 37°57' E 023°35'6 2.3
2015-Apr-16 09:09N 38°02' E 023°32'0 0.0
2015-Apr-16 08:32N 38°02' E 023°32'0 0.0
2015-Apr-16 07:34N 38°02' E 023°32'5 0.2
2015-Apr-15 03:33N 37°57' E 023°34'0 0.0
2015-Apr-15 02:31N 37°57' E 023°34'0 0.0
2015-Apr-15 01:31N 37°57' E 023°34'0 0.0
2015-Apr-15 00:33N 37°57' E 023°34'0 0.0
2015-Apr-14 23:33N 37°57' E 023°34'0 0.0
2015-Apr-14 22:33N 37°57' E 023°34'0 0.0
2015-Apr-14 21:33N 37°57' E 023°34'0 0.0
2015-Apr-14 20:33N 37°57' E 023°34'0 0.0
2015-Apr-14 19:33N 37°57' E 023°34'1 0.5
2015-Apr-14 18:33N 37°57' E 023°35'2 2.5
2015-Apr-14 17:33N 37°56' E 023°38'0 0.0
2015-Apr-14 16:33N 37°56' E 023°38'1 0.9
2015-Apr-14 15:33N 37°56' E 023°37'0 0.3
2015-Apr-14 14:33N 37°57' E 023°36'2 1.6
2015-Apr-14 13:33N 37°57' E 023°38'0 0.0
2015-Apr-14 12:33N 37°57' E 023°38'2 2.3
2015-Apr-14 11:33N 37°57' E 023°36'  
2015-Apr-11 01:22N 38°02' E 023°32'3 3.7
2015-Apr-11 00:34N 38°02' E 023°36'0 0.1
2015-Apr-10 23:34N 38°02' E 023°36'0 0.0
2015-Apr-10 22:33N 38°02' E 023°36'0 0.0
2015-Apr-10 21:33N 38°02' E 023°36'0 0.0
2015-Apr-10 20:34N 38°02' E 023°36'1 0.6
2015-Apr-10 19:33N 38°02' E 023°35'0 0.0
2015-Apr-10 18:33N 38°02' E 023°35'0 0.0
2015-Apr-10 17:33N 38°02' E 023°35'0 0.0
2015-Apr-10 16:34N 38°02' E 023°35'0 0.0
2015-Apr-10 15:34N 38°02' E 023°35'0 0.0
2015-Apr-10 14:33N 38°02' E 023°35'0 0.0
2015-Apr-10 13:33N 38°02' E 023°35'4 4.0
2015-Apr-10 12:34N 37°58' E 023°33'5 4.6
2015-Apr-10 11:34N 37°57' E 023°38'0 0.0
2015-Apr-10 10:34N 37°57' E 023°38'0 0.0
2015-Apr-10 09:33N 37°57' E 023°38'4 4.4
2015-Apr-10 08:34N 37°57' E 023°33'5 4.7
2015-Apr-10 07:33N 38°02' E 023°36'0 0.0
2015-Apr-10 06:33N 38°02' E 023°36'0 0.0
2015-Apr-10 05:33N 38°02' E 023°36'0 0.0
2015-Apr-10 04:33N 38°02' E 023°36'3 0.2
2015-Apr-09 15:06N 38°02' E 023°32'3 6.5
2015-Apr-09 14:34N 37°59' E 023°33'4 4.2
2015-Apr-09 13:33N 37°56' E 023°37'0 0.0
2015-Apr-09 12:33N 37°56' E 023°37'0 0.0
2015-Apr-09 11:33N 37°56' E 023°37'2 2.4
2015-Apr-09 10:33N 37°57' E 023°35'0 0.3
2015-Apr-09 09:34N 37°57' E 023°34'0 0.0
2015-Apr-09 08:33N 37°57' E 023°34'0 0.0
2015-Apr-09 07:33N 37°57' E 023°34'0 0.0
2015-Apr-09 06:33N 37°57' E 023°34'0 0.0
2015-Apr-09 05:34N 37°57' E 023°34'0 0.0
2015-Apr-09 04:33N 37°57' E 023°34'0 0.1
2015-Apr-09 03:33N 37°57' E 023°34'0 0.0
2015-Apr-09 02:34N 37°57' E 023°34'0 0.0
2015-Apr-09 01:33N 37°57' E 023°34'0 0.0
2015-Apr-09 00:33N 37°57' E 023°34'3 3.1
2015-Apr-08 23:33N 37°57' E 023°38'0 0.4
2015-Apr-08 22:33N 37°57' E 023°38'0 0.0
2015-Apr-08 21:34N 37°57' E 023°38'3 3.3
2015-Apr-08 20:34N 37°57' E 023°34'0 0.2
2015-Apr-08 19:33N 37°57' E 023°34'0 0.0
2015-Apr-08 18:34N 37°57' E 023°34'0 0.0
2015-Apr-08 17:32N 37°57' E 023°34'0 0.0
2015-Apr-08 16:33N 37°57' E 023°34'0 0.0
2015-Apr-08 15:33N 37°57' E 023°34'0 0.0
2015-Apr-08 14:33N 37°57' E 023°34'0 0.0
2015-Apr-08 13:33N 37°57' E 023°34'0 0.0
2015-Apr-08 12:33N 37°57' E 023°34'0 0.0
2015-Apr-08 11:33N 37°57' E 023°34'0 0.0
2015-Apr-08 10:33N 37°57' E 023°34'3 3.2
2015-Apr-08 09:32N 38°01' E 023°34'2 1.9
2015-Apr-08 08:28N 38°02' E 023°35'0 0.0
2015-Apr-08 07:32N 38°02' E 023°35'0 0.2
2015-Apr-08 06:33N 38°02' E 023°35'2 2.4
2015-Apr-08 05:33N 38°02' E 023°32'0 0.0
2015-Apr-08 04:32N 38°02' E 023°32'  
Track history (hours):
 
Tides and Currents Weather Stations Pressure Air Temp Water Temp Dewpoint Dewpoint Depression Visibility Wind Speed Wind Dir Waves Ship Positions

Aegean Orion

Last reported at 2015-Apr-18 04:16 UTC. Time now 2015-Apr-19 09:23 UTC.
Position N 38°02' E 023°32'.

; draft 2.4 m.

Type: Ship. MMSI: 239550200.

Date/timePositionNaut miles runAvg speedWind from/ knotsBaromVisibWave heightAir tempDewpointWater temp
2015-Apr-18 04:16N 38°02' E 023°32'5 6.8
2015-Apr-18 03:33N 37°57' E 023°35'0 0.1
2015-Apr-18 02:33N 37°57' E 023°35'0 0.0
2015-Apr-18 01:34N 37°57' E 023°35'0 0.0
2015-Apr-18 00:33N 37°57' E 023°35'0 0.0
2015-Apr-17 23:33N 37°57' E 023°35'3 3.1
2015-Apr-17 22:33N 37°57' E 023°38'0 0.0
2015-Apr-17 21:33N 37°57' E 023°38'0 0.1
2015-Apr-17 20:33N 37°57' E 023°38'3 3.1
2015-Apr-17 19:33N 37°57' E 023°35'0 0.0
2015-Apr-17 18:33N 37°57' E 023°34'0 0.0
2015-Apr-17 17:33N 37°57' E 023°34'0 0.0
2015-Apr-17 16:33N 37°57' E 023°34'0 0.0
2015-Apr-17 15:33N 37°57' E 023°34'0 0.0
2015-Apr-17 14:33N 37°57' E 023°34'0 0.0
2015-Apr-17 13:33N 37°57' E 023°34'0 0.0
2015-Apr-17 12:33N 37°57' E 023°34'0 0.0
2015-Apr-17 11:33N 37°57' E 023°34'0 0.0
2015-Apr-17 10:33N 37°57' E 023°34'0 0.0
2015-Apr-17 09:33N 37°57' E 023°34'2 1.9
2015-Apr-17 08:33N 37°58' E 023°33'4 0.3
2015-Apr-16 21:16N 38°02' E 023°32'7 1.0
2015-Apr-16 13:33N 37°56' E 023°38'0 0.3
2015-Apr-16 12:13N 37°57' E 023°38'3 4.5
2015-Apr-16 11:33N 37°57' E 023°35'6 2.3
2015-Apr-16 09:09N 38°02' E 023°32'0 0.0
2015-Apr-16 08:32N 38°02' E 023°32'0 0.0
2015-Apr-16 07:34N 38°02' E 023°32'5 0.2
2015-Apr-15 03:33N 37°57' E 023°34'0 0.0
2015-Apr-15 02:31N 37°57' E 023°34'0 0.0
2015-Apr-15 01:31N 37°57' E 023°34'0 0.0
2015-Apr-15 00:33N 37°57' E 023°34'0 0.0
2015-Apr-14 23:33N 37°57' E 023°34'0 0.0
2015-Apr-14 22:33N 37°57' E 023°34'0 0.0
2015-Apr-14 21:33N 37°57' E 023°34'0 0.0
2015-Apr-14 20:33N 37°57' E 023°34'0 0.0
2015-Apr-14 19:33N 37°57' E 023°34'1 0.5
2015-Apr-14 18:33N 37°57' E 023°35'2 2.5
2015-Apr-14 17:33N 37°56' E 023°38'0 0.0
2015-Apr-14 16:33N 37°56' E 023°38'1 0.9
2015-Apr-14 15:33N 37°56' E 023°37'0 0.3
2015-Apr-14 14:33N 37°57' E 023°36'2 1.6
2015-Apr-14 13:33N 37°57' E 023°38'0 0.0
2015-Apr-14 12:33N 37°57' E 023°38'2 2.3
2015-Apr-14 11:33N 37°57' E 023°36'  
2015-Apr-11 01:22N 38°02' E 023°32'3 3.7
2015-Apr-11 00:34N 38°02' E 023°36'0 0.1
2015-Apr-10 23:34N 38°02' E 023°36'0 0.0
2015-Apr-10 22:33N 38°02' E 023°36'0 0.0
2015-Apr-10 21:33N 38°02' E 023°36'0 0.0
2015-Apr-10 20:34N 38°02' E 023°36'1 0.6
2015-Apr-10 19:33N 38°02' E 023°35'0 0.0
2015-Apr-10 18:33N 38°02' E 023°35'0 0.0
2015-Apr-10 17:33N 38°02' E 023°35'0 0.0
2015-Apr-10 16:34N 38°02' E 023°35'0 0.0
2015-Apr-10 15:34N 38°02' E 023°35'0 0.0
2015-Apr-10 14:33N 38°02' E 023°35'0 0.0
2015-Apr-10 13:33N 38°02' E 023°35'4 4.0
2015-Apr-10 12:34N 37°58' E 023°33'5 4.6
2015-Apr-10 11:34N 37°57' E 023°38'0 0.0
2015-Apr-10 10:34N 37°57' E 023°38'0 0.0
2015-Apr-10 09:33N 37°57' E 023°38'4 4.4
2015-Apr-10 08:34N 37°57' E 023°33'5 4.7
2015-Apr-10 07:33N 38°02' E 023°36'0 0.0
2015-Apr-10 06:33N 38°02' E 023°36'0 0.0
2015-Apr-10 05:33N 38°02' E 023°36'0 0.0
2015-Apr-10 04:33N 38°02' E 023°36'3 0.2
2015-Apr-09 15:06N 38°02' E 023°32'3 6.5
2015-Apr-09 14:34N 37°59' E 023°33'4 4.2
2015-Apr-09 13:33N 37°56' E 023°37'0 0.0
2015-Apr-09 12:33N 37°56' E 023°37'0 0.0
2015-Apr-09 11:33N 37°56' E 023°37'2 2.4
2015-Apr-09 10:33N 37°57' E 023°35'0 0.3
2015-Apr-09 09:34N 37°57' E 023°34'0 0.0
2015-Apr-09 08:33N 37°57' E 023°34'0 0.0
2015-Apr-09 07:33N 37°57' E 023°34'0 0.0
2015-Apr-09 06:33N 37°57' E 023°34'0 0.0
2015-Apr-09 05:34N 37°57' E 023°34'0 0.0
2015-Apr-09 04:33N 37°57' E 023°34'0 0.1
2015-Apr-09 03:33N 37°57' E 023°34'0 0.0
2015-Apr-09 02:34N 37°57' E 023°34'0 0.0
2015-Apr-09 01:33N 37°57' E 023°34'0 0.0
2015-Apr-09 00:33N 37°57' E 023°34'3 3.1
2015-Apr-08 23:33N 37°57' E 023°38'0 0.4
2015-Apr-08 22:33N 37°57' E 023°38'0 0.0
2015-Apr-08 21:34N 37°57' E 023°38'3 3.3
2015-Apr-08 20:34N 37°57' E 023°34'0 0.2
2015-Apr-08 19:33N 37°57' E 023°34'0 0.0
2015-Apr-08 18:34N 37°57' E 023°34'0 0.0
2015-Apr-08 17:32N 37°57' E 023°34'0 0.0
2015-Apr-08 16:33N 37°57' E 023°34'0 0.0
2015-Apr-08 15:33N 37°57' E 023°34'0 0.0
2015-Apr-08 14:33N 37°57' E 023°34'0 0.0
2015-Apr-08 13:33N 37°57' E 023°34'0 0.0
2015-Apr-08 12:33N 37°57' E 023°34'0 0.0
2015-Apr-08 11:33N 37°57' E 023°34'0 0.0
2015-Apr-08 10:33N 37°57' E 023°34'3 3.2
2015-Apr-08 09:32N 38°01' E 023°34'2 1.9
2015-Apr-08 08:28N 38°02' E 023°35'0 0.0
2015-Apr-08 07:32N 38°02' E 023°35'0 0.2
2015-Apr-08 06:33N 38°02' E 023°35'2 2.4
2015-Apr-08 05:33N 38°02' E 023°32'0 0.0
2015-Apr-08 04:32N 38°02' E 023°32'  

Dump ship's entire track history